createdAt,value
2018-08-20T00:01:35.625Z,98356.92
2018-08-20T00:04:06.540Z,98345.77
2018-08-20T00:06:48.704Z,98349.29
2018-08-20T00:09:17.677Z,98349.94
2018-08-20T00:11:46.970Z,98346.32
2018-08-20T00:14:17.831Z,98340.13
2018-08-20T00:16:46.651Z,98343.78
2018-08-20T00:19:15.106Z,98346.01
2018-08-20T00:21:44.993Z,98349.91
2018-08-20T00:24:13.458Z,98346.13
2018-08-20T00:26:41.887Z,98346.11
2018-08-20T00:29:10.572Z,98347.27
2018-08-20T00:31:39.014Z,98346.05
2018-08-20T00:34:07.457Z,98347.30
2018-08-20T00:36:35.976Z,98348.48
2018-08-20T00:39:06.305Z,98355.11
2018-08-20T00:41:34.783Z,98350.52
2018-08-20T00:44:07.061Z,98354.13
2018-08-20T00:46:35.508Z,98355.37
2018-08-20T00:49:04.000Z,98345.15
2018-08-20T00:51:32.925Z,98354.54
2018-08-20T00:54:01.540Z,98351.07
2018-08-20T00:56:29.935Z,98350.23
2018-08-20T00:58:58.357Z,98352.77
2018-08-20T01:01:26.810Z,98358.11
2018-08-20T01:03:55.352Z,98360.45
2018-08-20T01:06:23.829Z,98357.78
2018-08-20T01:08:52.650Z,98361.48
2018-08-20T01:11:21.130Z,98343.09
2018-08-20T01:13:50.327Z,98364.27
2018-08-20T01:16:18.753Z,98359.50
2018-08-20T01:18:47.396Z,98356.17
2018-08-20T01:21:15.834Z,98363.16
2018-08-20T01:23:44.489Z,98364.70
2018-08-20T01:26:13.280Z,98370.05
2018-08-20T01:28:41.786Z,98361.36
2018-08-20T01:31:10.266Z,98364.23
2018-08-20T01:33:38.695Z,98354.20
2018-08-20T01:36:07.148Z,98354.58
2018-08-20T01:38:35.596Z,98358.44
2018-08-20T01:41:04.079Z,98363.34
2018-08-20T01:43:32.531Z,98365.64
2018-08-20T01:46:01.156Z,98359.44
2018-08-20T01:48:29.905Z,98364.79
2018-08-20T01:50:58.353Z,98370.66
2018-08-20T01:53:26.803Z,98369.31
2018-08-20T01:55:55.261Z,98367.98
2018-08-20T01:58:23.704Z,98372.33
2018-08-20T02:00:52.168Z,98372.67
2018-08-20T02:03:20.649Z,98365.95
2018-08-20T02:05:49.107Z,98375.82
2018-08-20T02:08:17.544Z,98374.50
2018-08-20T02:10:46.019Z,98372.00
2018-08-20T02:13:14.419Z,98379.51
2018-08-20T02:15:42.869Z,98374.34
2018-08-20T02:18:11.667Z,98373.66
2018-08-20T02:20:40.099Z,98371.16
2018-08-20T02:23:08.769Z,98374.31
2018-08-20T02:25:37.200Z,98374.84
2018-08-20T02:28:06.203Z,98373.66
2018-08-20T02:30:34.647Z,98363.80
2018-08-20T02:33:03.095Z,98368.66
2018-08-20T02:35:31.562Z,98370.17
2018-08-20T02:38:00.011Z,98369.81
2018-08-20T02:40:28.831Z,98372.00
2018-08-20T02:42:57.420Z,98368.16
2018-08-20T02:45:25.922Z,98364.63
2018-08-20T02:47:54.340Z,98369.33
2018-08-20T02:50:22.834Z,98364.63
2018-08-20T02:52:51.274Z,98364.48
2018-08-20T02:55:19.717Z,98361.28
2018-08-20T02:57:48.560Z,98363.22
2018-08-20T03:00:17.062Z,98365.80
2018-08-20T03:02:45.516Z,98366.11
2018-08-20T03:05:13.979Z,98369.45
2018-08-20T03:07:42.392Z,98374.55
2018-08-20T03:10:12.443Z,98372.31
2018-08-20T03:12:41.368Z,98366.48
2018-08-20T03:15:10.886Z,98370.11
2018-08-20T03:17:39.368Z,98371.41
2018-08-20T03:20:08.216Z,98375.31
2018-08-20T03:22:36.660Z,98370.86
2018-08-20T03:25:06.184Z,98373.44
2018-08-20T03:27:34.606Z,98367.57
2018-08-20T03:30:03.067Z,98368.84
2018-08-20T03:32:31.564Z,98370.69
2018-08-20T03:34:59.995Z,98377.34
2018-08-20T03:37:28.455Z,98376.34
2018-08-20T03:39:56.912Z,98375.00
2018-08-20T03:42:25.371Z,98370.64
2018-08-20T03:44:54.151Z,98375.49
2018-08-20T03:47:22.913Z,98375.83
2018-08-20T03:49:51.612Z,98384.01
2018-08-20T03:52:20.151Z,98380.50
2018-08-20T03:54:48.619Z,98378.98
2018-08-20T03:57:17.085Z,98386.03
2018-08-20T03:59:45.544Z,98382.84
2018-08-20T04:02:14.190Z,98379.16
2018-08-20T04:04:42.608Z,98384.22
2018-08-20T04:07:11.030Z,98385.12
2018-08-20T04:09:39.928Z,98386.19
2018-08-20T04:12:08.376Z,98391.59
2018-08-20T04:14:36.811Z,98393.29
2018-08-20T04:17:05.280Z,98391.59
2018-08-20T04:19:33.700Z,98396.48
2018-08-20T04:22:02.211Z,98392.92
2018-08-20T04:24:30.672Z,98402.72
2018-08-20T04:26:59.396Z,98398.52
2018-08-20T04:29:27.918Z,98393.35
2018-08-20T04:31:56.343Z,98401.70
2018-08-20T04:34:24.798Z,98402.52
2018-08-20T04:36:53.253Z,98402.78
2018-08-20T04:39:21.680Z,98398.56
2018-08-20T04:41:50.072Z,98400.14
2018-08-20T04:44:18.519Z,98404.98
2018-08-20T04:46:47.302Z,98404.64
2018-08-20T04:49:15.714Z,98405.73
2018-08-20T04:51:44.299Z,98408.06
2018-08-20T04:54:12.695Z,98400.61
2018-08-20T04:56:41.153Z,98411.27
2018-08-20T04:59:09.643Z,98419.09
2018-08-20T05:01:38.100Z,98419.56
2018-08-20T05:04:07.182Z,98421.70
2018-08-20T05:06:35.531Z,98422.25
2018-08-20T05:09:06.043Z,98421.07
2018-08-20T05:11:34.471Z,98420.77
2018-08-20T05:14:03.156Z,98423.15
2018-08-20T05:16:31.602Z,98424.44
2018-08-20T05:19:00.160Z,98389.37
2018-08-20T05:21:28.582Z,98415.95
2018-08-20T05:23:57.008Z,98413.05
2018-08-20T05:26:25.661Z,98414.56
2018-08-20T05:28:54.162Z,98414.33
2018-08-20T05:31:22.871Z,98418.00
2018-08-20T05:33:51.280Z,98420.03
2018-08-20T05:36:20.062Z,98420.30
2018-08-20T05:38:48.539Z,98423.52
2018-08-20T05:41:17.130Z,98431.63
2018-08-20T05:43:45.591Z,98437.67
2018-08-20T05:46:14.082Z,98445.58
2018-08-20T05:48:42.819Z,98452.20
2018-08-20T05:51:11.287Z,98451.53
2018-08-20T05:53:39.683Z,98451.73
2018-08-20T05:56:08.697Z,98456.59
2018-08-20T05:58:37.154Z,98454.64
2018-08-20T06:01:05.786Z,98456.98
2018-08-20T06:03:34.419Z,98456.53
2018-08-20T06:06:02.903Z,98453.77
2018-08-20T06:08:31.354Z,98461.01
2018-08-20T06:10:59.768Z,98461.70
2018-08-20T06:13:28.252Z,98462.13
2018-08-20T06:15:56.780Z,98464.67
2018-08-20T06:18:25.362Z,98464.71
2018-08-20T06:20:54.157Z,98462.23
2018-08-20T06:23:22.700Z,98464.89
2018-08-20T06:25:51.161Z,98463.28
2018-08-20T06:28:19.802Z,98469.22
2018-08-20T06:30:48.252Z,98472.02
2018-08-20T06:33:16.701Z,98469.24
2018-08-20T06:35:45.188Z,98470.02
2018-08-20T06:38:13.991Z,98469.97
2018-08-20T06:40:42.443Z,98473.50
2018-08-20T06:43:10.994Z,98464.84
2018-08-20T06:45:39.445Z,98466.48
2018-08-20T06:48:08.256Z,98466.07
2018-08-20T06:50:36.663Z,98462.16
2018-08-20T06:53:05.133Z,98457.20
2018-08-20T06:55:33.630Z,98411.31
2018-08-20T06:58:17.454Z,98455.19
2018-08-20T07:00:46.023Z,98457.75
2018-08-20T07:03:14.715Z,98456.78
2018-08-20T07:05:43.252Z,98462.80
2018-08-20T07:08:11.779Z,98460.70
2018-08-20T07:10:47.312Z,98459.80
2018-08-20T07:13:25.007Z,98460.14
2018-08-20T07:15:53.843Z,98455.91
2018-08-20T07:18:22.281Z,98461.66
2018-08-20T07:20:51.321Z,98461.27
2018-08-20T07:23:19.857Z,98474.09
2018-08-20T07:25:48.372Z,98466.62
2018-08-20T07:28:17.099Z,98468.52
2018-08-20T07:30:46.131Z,98477.05
2018-08-20T07:33:14.792Z,98476.01
2018-08-20T07:35:43.299Z,98482.00
2018-08-20T07:38:11.771Z,98485.16
2018-08-20T07:40:40.312Z,98494.11
2018-08-20T07:43:08.769Z,98484.34
2018-08-20T07:45:47.716Z,98481.33
2018-08-20T07:48:16.158Z,98482.45
2018-08-20T07:50:44.883Z,98491.40
2018-08-20T07:53:13.489Z,98487.27
2018-08-20T07:55:42.405Z,98484.21
2018-08-20T07:58:10.774Z,98489.09
2018-08-20T08:00:39.372Z,98481.19
2018-08-20T08:03:07.823Z,98484.23
2018-08-20T08:05:36.357Z,98488.69
2018-08-20T08:08:04.812Z,98484.92
2018-08-20T08:10:33.508Z,98488.91
2018-08-20T08:13:02.015Z,98483.52
2018-08-20T08:15:30.468Z,98484.30
2018-08-20T08:18:29.336Z,98480.52
2018-08-20T08:20:57.772Z,98477.72
2018-08-20T08:23:26.239Z,98471.70
2018-08-20T08:25:54.652Z,98472.46
2018-08-20T08:28:23.060Z,98473.25
2018-08-20T08:30:51.559Z,98469.50
2018-08-20T08:33:19.977Z,98475.88
2018-08-20T08:35:48.439Z,98472.14
2018-08-20T08:38:16.879Z,98471.07
2018-08-20T08:40:45.543Z,98472.77
2018-08-20T08:43:14.097Z,98467.16
2018-08-20T08:45:42.570Z,98472.52
2018-08-20T08:48:11.104Z,98473.97
2018-08-20T08:50:40.199Z,98474.06
2018-08-20T08:53:08.706Z,98470.42
2018-08-20T08:55:37.212Z,98468.25
2018-08-20T08:58:06.214Z,98454.92
2018-08-20T09:00:34.693Z,98451.66
2018-08-20T09:03:03.136Z,98459.10
2018-08-20T09:05:31.591Z,98457.05
2018-08-20T09:08:00.065Z,98452.91
2018-08-20T09:10:28.545Z,98453.53
2018-08-20T09:12:57.036Z,98454.89
2018-08-20T09:15:25.523Z,98450.90
2018-08-20T09:17:54.000Z,98448.66
2018-08-20T09:20:22.432Z,98450.39
2018-08-20T09:22:50.883Z,98447.07
2018-08-20T09:25:19.328Z,98456.95
2018-08-20T09:27:47.762Z,98445.75
2018-08-20T09:30:20.731Z,98440.84
2018-08-20T09:32:49.394Z,98449.77
2018-08-20T09:35:17.852Z,98435.53
2018-08-20T09:37:46.321Z,98434.55
2018-08-20T09:40:15.446Z,98441.28
2018-08-20T09:42:44.219Z,98440.72
2018-08-20T09:45:12.659Z,98432.92
2018-08-20T09:47:41.867Z,98432.02
2018-08-20T09:50:12.111Z,98433.66
2018-08-20T09:52:40.519Z,98433.48
2018-08-20T09:55:09.673Z,98427.34
2018-08-20T09:57:38.925Z,98434.05
2018-08-20T10:00:11.735Z,98429.76
2018-08-20T10:02:40.172Z,98434.36
2018-08-20T10:05:08.633Z,98427.16
2018-08-20T10:07:37.075Z,98435.50
2018-08-20T10:10:06.260Z,98436.25
2018-08-20T10:12:34.857Z,98435.63
2018-08-20T10:15:03.379Z,98432.47
2018-08-20T10:17:31.823Z,98437.14
2018-08-20T10:20:00.404Z,98436.02
2018-08-20T10:22:28.871Z,98431.41
2018-08-20T10:24:57.543Z,98427.05
2018-08-20T10:27:25.962Z,98432.06
2018-08-20T10:29:54.489Z,98423.32
2018-08-20T10:32:22.911Z,98419.51
2018-08-20T10:34:51.575Z,98417.08
2018-08-20T10:37:20.011Z,98416.96
2018-08-20T10:39:48.518Z,98413.55
2018-08-20T10:42:16.966Z,98406.20
2018-08-20T10:44:50.707Z,98414.98
2018-08-20T10:47:19.575Z,98404.52
2018-08-20T10:49:48.293Z,98402.59
2018-08-20T10:52:17.260Z,98398.58
2018-08-20T10:54:45.718Z,98390.38
2018-08-20T10:57:14.359Z,98391.61
2018-08-20T10:59:42.802Z,98389.82
2018-08-20T11:02:11.370Z,98384.75
2018-08-20T11:04:39.848Z,98384.74
2018-08-20T11:07:08.389Z,98384.66
2018-08-20T11:09:36.704Z,98377.36
2018-08-20T11:12:05.195Z,98375.72
2018-08-20T11:14:33.649Z,98370.05
2018-08-20T11:17:02.079Z,98365.77
2018-08-20T11:19:30.490Z,98363.70
2018-08-20T11:21:58.948Z,98355.75
2018-08-20T11:24:27.376Z,98355.85
2018-08-20T11:26:55.858Z,98357.02
2018-08-20T11:29:24.237Z,98353.55
2018-08-20T11:31:52.663Z,98349.06
2018-08-20T11:34:21.324Z,98352.31
2018-08-20T11:36:50.459Z,98345.17
2018-08-20T11:39:18.892Z,98343.68
2018-08-20T11:41:47.327Z,98343.47
2018-08-20T11:44:16.102Z,98339.88
2018-08-20T11:46:44.534Z,98346.07
2018-08-20T11:49:12.994Z,98341.41
2018-08-20T11:51:41.526Z,98340.17
2018-08-20T11:54:10.015Z,98332.66
2018-08-20T11:56:38.570Z,98333.21
2018-08-20T11:59:07.439Z,98337.95
2018-08-20T12:01:35.807Z,98332.37
2018-08-20T12:04:04.291Z,98325.86
2018-08-20T12:06:32.690Z,98318.16
2018-08-20T12:09:01.362Z,98320.08
2018-08-20T12:11:29.837Z,98321.08
2018-08-20T12:13:58.300Z,98315.50
2018-08-20T12:16:27.072Z,98321.80
2018-08-20T12:18:56.121Z,98321.90
2018-08-20T12:21:24.892Z,98306.20
2018-08-20T12:23:53.689Z,98308.98
2018-08-20T12:26:22.144Z,98312.12
2018-08-20T12:28:50.607Z,98309.93
2018-08-20T12:31:19.184Z,98308.02
2018-08-20T12:33:47.629Z,98304.73
2018-08-20T12:36:16.088Z,98296.89
2018-08-20T12:38:45.050Z,98299.23
2018-08-20T12:41:13.631Z,98299.17
2018-08-20T12:43:42.048Z,98289.31
2018-08-20T12:46:10.537Z,98293.47
2018-08-20T12:48:38.964Z,98301.03
2018-08-20T12:51:07.215Z,98287.97
2018-08-20T12:53:35.772Z,98290.32
2018-08-20T12:56:04.362Z,98289.84
2018-08-20T12:58:33.058Z,98284.40
2018-08-20T13:01:01.654Z,98284.02
2018-08-20T13:03:30.044Z,98296.81
2018-08-20T13:05:58.472Z,98281.31
2018-08-20T13:08:26.951Z,98278.91
2018-08-20T13:10:55.556Z,98279.14
2018-08-20T13:13:24.052Z,98276.84
2018-08-20T13:15:52.722Z,98277.21
2018-08-20T13:18:21.064Z,98281.09
2018-08-20T13:20:49.491Z,98280.90
2018-08-20T13:23:17.996Z,98275.38
2018-08-20T13:25:46.430Z,98273.47
2018-08-20T13:28:15.183Z,98263.23
2018-08-20T13:30:43.886Z,98261.39
2018-08-20T13:34:15.280Z,98262.86
2018-08-20T13:36:43.903Z,98247.97
2018-08-20T13:39:12.700Z,98252.17
2018-08-20T13:41:41.134Z,98268.80
2018-08-20T13:44:09.725Z,98257.80
2018-08-20T13:46:38.048Z,98252.60
2018-08-20T13:49:06.508Z,98247.06
2018-08-20T13:51:35.013Z,98250.00
2018-08-20T13:54:03.485Z,98236.17
2018-08-20T13:56:31.923Z,98234.64
2018-08-20T13:59:00.364Z,98243.84
2018-08-20T14:01:28.928Z,98249.87
2018-08-20T14:03:57.875Z,98238.58
2018-08-20T14:06:26.343Z,98244.81
2018-08-20T14:08:54.776Z,98242.62
2018-08-20T14:11:23.924Z,98244.56
2018-08-20T14:13:52.356Z,98236.86
2018-08-20T14:16:20.858Z,98238.91
2018-08-20T14:18:49.336Z,98240.14
2018-08-20T14:21:17.817Z,98234.48
2018-08-20T14:23:47.684Z,98227.55
2018-08-20T14:26:16.221Z,98229.21
2018-08-20T14:28:45.035Z,98232.37
2018-08-20T14:31:13.449Z,98226.31
2018-08-20T14:33:42.069Z,98190.46
2018-08-20T14:36:10.691Z,98221.87
2018-08-20T14:38:39.143Z,98217.86
2018-08-20T14:41:07.648Z,98213.59
2018-08-20T14:43:36.168Z,98214.70
2018-08-20T14:46:09.931Z,98219.67
2018-08-20T14:48:38.349Z,98215.14
2018-08-20T14:51:07.210Z,98214.77
2018-08-20T14:53:35.675Z,98210.28
2018-08-20T14:56:04.120Z,98219.14
2018-08-20T14:58:32.731Z,98218.55
2018-08-20T15:01:01.299Z,98214.33
2018-08-20T15:03:29.912Z,98209.98
2018-08-20T15:05:58.518Z,98209.21
2018-08-20T15:08:26.971Z,98205.75
2018-08-20T15:11:10.260Z,98206.78
2018-08-20T15:13:38.724Z,98216.83
2018-08-20T15:16:07.734Z,98204.87
2018-08-20T15:18:36.224Z,98206.70
2018-08-20T15:21:04.720Z,98199.66
2018-08-20T15:23:33.190Z,98201.59
2018-08-20T15:26:01.986Z,98191.72
2018-08-20T15:28:30.523Z,98195.55
2018-08-20T15:30:59.011Z,98194.72
2018-08-20T15:33:27.435Z,98194.03
2018-08-20T15:35:56.243Z,98186.70
2018-08-20T15:38:24.986Z,98187.02
2018-08-20T15:40:53.913Z,98202.98
2018-08-20T15:43:22.703Z,98189.14
2018-08-20T15:45:51.112Z,98186.94
2018-08-20T15:48:19.781Z,98187.96
2018-08-20T15:50:48.427Z,98188.84
2018-08-20T15:53:16.851Z,98186.29
2018-08-20T15:55:45.316Z,98179.97
2018-08-20T15:58:13.775Z,98179.41
2018-08-20T16:01:44.826Z,98170.91
2018-08-20T16:04:14.172Z,98170.61
2018-08-20T16:06:43.099Z,98172.48
2018-08-20T16:09:11.522Z,98174.92
2018-08-20T16:11:39.986Z,98166.52
2018-08-20T16:14:08.478Z,98172.00
2018-08-20T16:16:36.923Z,98166.75
2018-08-20T16:19:05.785Z,98161.59
2018-08-20T16:21:34.432Z,98163.44
2018-08-20T16:24:03.407Z,98165.72
2018-08-20T16:26:31.866Z,98170.91
2018-08-20T16:29:00.723Z,98167.29
2018-08-20T16:31:29.506Z,98167.86
2018-08-20T16:33:57.950Z,98170.20
2018-08-20T16:36:26.484Z,98168.17
2018-08-20T16:38:55.046Z,98170.18
2018-08-20T16:41:23.543Z,98173.75
2018-08-20T16:43:51.958Z,98168.08
2018-08-20T16:46:20.601Z,98168.98
2018-08-20T16:48:49.086Z,98162.09
2018-08-20T16:51:17.507Z,98164.33
2018-08-20T16:53:45.964Z,98157.19
2018-08-20T16:56:14.744Z,98154.31
2018-08-20T16:58:43.261Z,98155.23
2018-08-20T17:01:15.043Z,98156.07
2018-08-20T17:03:43.517Z,98159.68
2018-08-20T17:06:11.936Z,98157.31
2018-08-20T17:08:42.918Z,98160.16
2018-08-20T17:11:12.096Z,98162.72
2018-08-20T17:13:41.792Z,98165.88
2018-08-20T17:16:12.607Z,98162.06
2018-08-20T17:18:41.626Z,98164.66
2018-08-20T17:21:10.075Z,98171.02
2018-08-20T17:23:38.718Z,98161.76
2018-08-20T17:29:11.725Z,98169.99
2018-08-20T17:31:40.674Z,98171.98
2018-08-20T17:34:09.342Z,98171.19
2018-08-20T17:36:39.664Z,98164.39
2018-08-20T17:39:09.179Z,98168.41
2018-08-20T17:41:37.632Z,98168.89
2018-08-20T17:44:06.134Z,98176.54
2018-08-20T17:46:34.688Z,98175.23
2018-08-20T17:49:03.080Z,98172.65
2018-08-20T17:51:31.550Z,98176.02
2018-08-20T17:54:00.440Z,98172.78
2018-08-20T17:56:29.154Z,98179.05
2018-08-20T17:59:02.511Z,98179.78
2018-08-20T18:01:35.834Z,98181.41
2018-08-20T18:04:04.874Z,98190.86
2018-08-20T18:06:47.976Z,98190.97
2018-08-20T18:09:16.841Z,98191.65
2018-08-20T18:11:51.268Z,98192.53
2018-08-20T18:14:22.354Z,98197.33
2018-08-20T18:16:50.862Z,98203.45
2018-08-20T18:19:19.430Z,98208.32
2018-08-20T18:21:48.038Z,98209.59
2018-08-20T18:24:18.825Z,98203.49
2018-08-20T18:26:50.144Z,98213.30
2018-08-20T18:29:18.615Z,98217.78
2018-08-20T18:31:52.599Z,98210.38
2018-08-20T18:34:21.648Z,98218.84
2018-08-20T18:36:50.107Z,98225.06
2018-08-20T18:39:18.524Z,98229.77
2018-08-20T18:42:49.664Z,98232.20
2018-08-20T18:45:18.240Z,98236.34
2018-08-20T18:47:46.776Z,98234.67
2018-08-20T18:50:15.265Z,98237.95
2018-08-20T18:52:44.125Z,98240.21
2018-08-20T18:55:12.599Z,98244.18
2018-08-20T18:57:41.104Z,98245.38
2018-08-20T19:00:13.635Z,98245.23
2018-08-20T19:02:49.233Z,98249.50
2018-08-20T19:05:18.936Z,98251.82
2018-08-20T19:07:47.609Z,98210.34
2018-08-20T19:10:34.444Z,98253.66
2018-08-20T19:13:05.974Z,98260.60
2018-08-20T19:15:39.013Z,98262.26
2018-08-20T19:18:09.112Z,98264.66
2018-08-20T19:20:41.369Z,98263.13
2018-08-20T19:23:09.877Z,98263.45
2018-08-20T19:25:38.634Z,98259.98
2018-08-20T19:28:13.361Z,98258.54
2018-08-20T19:30:41.888Z,98255.55
2018-08-20T19:33:15.444Z,98253.48
2018-08-20T19:35:43.916Z,98254.86
2018-08-20T19:38:12.375Z,98264.60
2018-08-20T19:40:40.801Z,98267.62
2018-08-20T19:43:09.270Z,98271.87
2018-08-20T19:45:42.854Z,98268.11
2018-08-20T19:48:12.462Z,98274.86
2018-08-20T19:50:41.112Z,98274.66
2018-08-20T19:53:17.596Z,98270.31
2018-08-20T19:55:46.997Z,98267.19
2018-08-20T19:58:20.821Z,98271.25
2018-08-20T20:01:02.274Z,98270.83
2018-08-20T20:03:32.196Z,98269.78
2018-08-20T20:06:00.778Z,98277.37
2018-08-20T20:08:29.338Z,98240.43
2018-08-20T20:10:57.847Z,98279.43
2018-08-20T20:13:26.421Z,98281.41
2018-08-20T20:15:55.565Z,98284.06
2018-08-20T20:18:24.072Z,98288.72
2018-08-20T20:20:52.782Z,98290.45
2018-08-20T20:23:21.507Z,98287.12
2018-08-20T20:25:49.979Z,98289.49
2018-08-20T20:28:18.493Z,98294.47
2018-08-20T20:30:46.969Z,98293.30
2018-08-20T20:33:15.468Z,98290.92
2018-08-20T20:35:43.927Z,98297.92
2018-08-20T20:38:12.391Z,98300.66
2018-08-20T20:40:41.080Z,98298.72
2018-08-20T20:43:09.513Z,98302.75
2018-08-20T20:45:37.957Z,98303.54
2018-08-20T20:48:06.394Z,98308.53
2018-08-20T20:50:34.820Z,98301.55
2018-08-20T20:53:03.276Z,98305.06
2018-08-20T20:55:31.712Z,98307.46
2018-08-20T20:58:00.201Z,98307.52
2018-08-20T21:00:28.636Z,98312.90
2018-08-20T21:03:03.219Z,98316.43
2018-08-20T21:05:31.675Z,98312.98
2018-08-20T21:08:00.121Z,98314.48
2018-08-20T21:10:33.310Z,98316.78
2018-08-20T21:13:01.753Z,98313.62
2018-08-20T21:15:30.236Z,98315.08
2018-08-20T21:17:58.806Z,98315.95
2018-08-20T21:20:27.356Z,98321.59
2018-08-20T21:22:55.816Z,98328.94
2018-08-20T21:25:24.265Z,98327.80
2018-08-20T21:27:52.775Z,98333.57
2018-08-20T21:30:21.351Z,98339.45
2018-08-20T21:32:49.809Z,98338.62
2018-08-20T21:35:18.207Z,98338.93
2018-08-20T21:37:46.654Z,98333.48
2018-08-20T21:40:19.671Z,98342.81
2018-08-20T21:42:48.127Z,98339.23
2018-08-20T21:45:16.605Z,98344.36
2018-08-20T21:47:45.027Z,98339.95
2018-08-20T21:50:13.468Z,98342.52
2018-08-20T21:52:42.235Z,98344.82
2018-08-20T21:55:10.720Z,98344.61
2018-08-20T21:57:43.616Z,98338.78
2018-08-20T22:00:15.807Z,98341.80
2018-08-20T22:02:49.465Z,98342.38
2018-08-20T22:05:18.590Z,98342.77
2018-08-20T22:07:47.547Z,98341.09
2018-08-20T22:10:16.783Z,98343.78
2018-08-20T22:12:46.049Z,98340.84
2018-08-20T22:15:14.812Z,98345.95
2018-08-20T22:17:43.939Z,98344.53
2018-08-20T22:20:13.645Z,98346.92
2018-08-20T22:22:42.982Z,98344.53
2018-08-20T22:25:13.104Z,98338.33
2018-08-20T22:27:46.815Z,98340.97
2018-08-20T22:30:15.367Z,98345.50
2018-08-20T22:32:44.335Z,98343.52
2018-08-20T22:35:17.829Z,98351.39
2018-08-20T22:37:49.216Z,98346.97
2018-08-20T22:40:19.591Z,98345.38
2018-08-20T22:42:54.027Z,98347.86
2018-08-20T22:45:23.377Z,98353.34
2018-08-20T22:47:52.674Z,98350.75
2018-08-20T22:50:21.159Z,98366.69
2018-08-20T22:52:51.116Z,98382.04
2018-08-20T22:55:22.083Z,98376.09
2018-08-20T22:58:06.475Z,98372.55
2018-08-20T23:00:34.924Z,98374.83
2018-08-20T23:03:03.384Z,98370.18
2018-08-20T23:05:32.954Z,98372.27
2018-08-20T23:08:07.710Z,98371.75
2018-08-20T23:10:39.464Z,98369.72
2018-08-20T23:13:07.912Z,98369.14
2018-08-20T23:15:36.345Z,98368.72
2018-08-20T23:18:05.910Z,98370.22
2018-08-20T23:20:34.399Z,98378.75
2018-08-20T23:23:02.858Z,98374.33
2018-08-20T23:25:31.336Z,98377.77
2018-08-20T23:28:14.020Z,98369.58
2018-08-20T23:30:46.808Z,98375.83
2018-08-20T23:33:15.355Z,98382.84
2018-08-20T23:35:43.889Z,98386.91
2018-08-20T23:38:12.336Z,98387.56
2018-08-20T23:40:40.828Z,98389.89
2018-08-20T23:43:09.263Z,98394.29
2018-08-20T23:45:37.741Z,98393.17
2018-08-20T23:48:06.228Z,98392.21
2018-08-20T23:50:35.012Z,98399.45
2018-08-20T23:53:03.475Z,98401.91
2018-08-20T23:55:31.986Z,98408.11
2018-08-20T23:58:00.798Z,98403.50
